QTR75 OMAA-OOMS
Flight info
| Callsign | QTR75 |
|---|---|
| Flight time | 0h 52m |
| Altitude | 21000 |
| Route | ORNEL2K ORNEL N685 LAKLU G216 MCT DCT |
| Aircraft | A332/H-SDE3GHIJ2J3J5M1RVWXY/LB2D1 |
Departure
| Time | 2026-04-27 08:23 |
|---|---|
| Airport | Zayed International Airport (OMAA) |
Arrival
| Time | 2026-04-27 09:16 |
|---|---|
| Airport | Muscat International Airport (OOMS) |
| Time | Latitude | Longitude | Altitude | Speed | Heading |
|---|---|---|---|---|---|
| 2026-04-27 08:16 | 24.42050 | 54.66596 | 50 ft | 0 kts | 46° |
| 2026-04-27 08:21 | 24.42053 | 54.66599 | 53 ft | 2 kts | 46° |
| 2026-04-27 08:21 | 24.42067 | 54.66614 | 52 ft | 4 kts | 42° |
| 2026-04-27 08:22 | 24.42096 | 54.66639 | 52 ft | 7 kts | 35° |
| 2026-04-27 08:22 | 24.42148 | 54.66663 | 51 ft | 9 kts | 9° |
| 2026-04-27 08:22 | 24.42211 | 54.66643 | 38 ft | 10 kts | 324° |
| 2026-04-27 08:22 | 24.42267 | 54.66573 | 54 ft | 23 kts | 310° |
| 2026-04-27 08:23 | 24.42529 | 54.66202 | 56 ft | 103 kts | 307° |
| 2026-04-27 08:23 | 24.43130 | 54.65348 | 104 ft | 176 kts | 308° |
| 2026-04-27 08:23 | 24.43956 | 54.64184 | 812 ft | 209 kts | 309° |
| 2026-04-27 08:23 | 24.44896 | 54.62868 | 1894 ft | 222 kts | 310° |
| 2026-04-27 08:24 | 24.45832 | 54.61555 | 3154 ft | 217 kts | 309° |
| 2026-04-27 08:24 | 24.46756 | 54.60260 | 4063 ft | 215 kts | 309° |
| 2026-04-27 08:24 | 24.47678 | 54.58963 | 4960 ft | 216 kts | 309° |
| 2026-04-27 08:24 | 24.48604 | 54.57657 | 5779 ft | 218 kts | 309° |
| 2026-04-27 08:25 | 24.49545 | 54.56332 | 6582 ft | 222 kts | 309° |
| 2026-04-27 08:25 | 24.50503 | 54.54982 | 7364 ft | 226 kts | 308° |
| 2026-04-27 08:25 | 24.51479 | 54.53607 | 8127 ft | 233 kts | 308° |
| 2026-04-27 08:25 | 24.52509 | 54.52157 | 8673 ft | 251 kts | 307° |
| 2026-04-27 08:26 | 24.53642 | 54.50558 | 8876 ft | 280 kts | 307° |
| 2026-04-27 08:26 | 24.54885 | 54.48805 | 9237 ft | 299 kts | 307° |
| 2026-04-27 08:26 | 24.56154 | 54.47018 | 10224 ft | 292 kts | 307° |
| 2026-04-27 08:26 | 24.57385 | 54.45285 | 11367 ft | 282 kts | 307° |
| 2026-04-27 08:27 | 24.58576 | 54.43620 | 12501 ft | 272 kts | 308° |
| 2026-04-27 08:27 | 24.59997 | 54.42294 | 13598 ft | 268 kts | 331° |
| 2026-04-27 08:27 | 24.61825 | 54.41883 | 14353 ft | 277 kts | 2° |
| 2026-04-27 08:27 | 24.63647 | 54.42577 | 14991 ft | 290 kts | 29° |
| 2026-04-27 08:28 | 24.65100 | 54.44160 | 15597 ft | 302 kts | 58° |
| 2026-04-27 08:28 | 24.65768 | 54.46372 | 16068 ft | 316 kts | 87° |
| 2026-04-27 08:28 | 24.65608 | 54.48844 | 16352 ft | 333 kts | 101° |
| 2026-04-27 08:28 | 24.65182 | 54.51426 | 16631 ft | 352 kts | 103° |
| 2026-04-27 08:29 | 24.64710 | 54.54135 | 16910 ft | 369 kts | 102° |
| 2026-04-27 08:29 | 24.64237 | 54.56976 | 17189 ft | 387 kts | 102° |
| 2026-04-27 08:29 | 24.63765 | 54.59943 | 17522 ft | 401 kts | 101° |
| 2026-04-27 08:29 | 24.63269 | 54.62995 | 18050 ft | 408 kts | 104° |
| 2026-04-27 08:30 | 24.62634 | 54.66056 | 18579 ft | 413 kts | 105° |
| 2026-04-27 08:30 | 24.61937 | 54.69139 | 19102 ft | 418 kts | 106° |
| 2026-04-27 08:30 | 24.61229 | 54.72216 | 19628 ft | 423 kts | 106° |
| 2026-04-27 08:30 | 24.60395 | 54.75329 | 20174 ft | 426 kts | 114° |
| 2026-04-27 08:31 | 24.58885 | 54.78121 | 20642 ft | 426 kts | 133° |
| 2026-04-27 08:31 | 24.56818 | 54.80514 | 20847 ft | 437 kts | 139° |
| 2026-04-27 08:31 | 24.54560 | 54.82837 | 20878 ft | 452 kts | 140° |
| 2026-04-27 08:31 | 24.52206 | 54.85218 | 20873 ft | 467 kts | 140° |
| 2026-04-27 08:32 | 24.49858 | 54.87620 | 20873 ft | 459 kts | 140° |
| 2026-04-27 08:32 | 24.47590 | 54.89976 | 20875 ft | 439 kts | 140° |
| 2026-04-27 08:32 | 24.45429 | 54.92244 | 20874 ft | 421 kts | 139° |
| 2026-04-27 08:32 | 24.43357 | 54.94431 | 20876 ft | 407 kts | 139° |
| 2026-04-27 08:33 | 24.41326 | 54.96575 | 20877 ft | 404 kts | 139° |
| 2026-04-27 08:33 | 24.39293 | 54.98717 | 20878 ft | 405 kts | 139° |
| 2026-04-27 08:33 | 24.37257 | 55.00861 | 20872 ft | 405 kts | 139° |
| 2026-04-27 08:33 | 24.35227 | 55.02997 | 20875 ft | 403 kts | 139° |
| 2026-04-27 08:34 | 24.33217 | 55.05142 | 20881 ft | 403 kts | 136° |
| 2026-04-27 08:34 | 24.31519 | 55.07604 | 20886 ft | 406 kts | 124° |
| 2026-04-27 08:34 | 24.30119 | 55.10304 | 20882 ft | 408 kts | 121° |
| 2026-04-27 08:34 | 24.28794 | 55.13009 | 20881 ft | 408 kts | 120° |
| 2026-04-27 08:35 | 24.27447 | 55.15746 | 20884 ft | 408 kts | 121° |
| 2026-04-27 08:35 | 24.26077 | 55.18489 | 20894 ft | 408 kts | 121° |
| 2026-04-27 08:35 | 24.24701 | 55.21210 | 20891 ft | 408 kts | 121° |
| 2026-04-27 08:35 | 24.23315 | 55.23931 | 20895 ft | 408 kts | 121° |
| 2026-04-27 08:36 | 24.21930 | 55.26639 | 20894 ft | 408 kts | 121° |
| 2026-04-27 08:36 | 24.20557 | 55.29314 | 20895 ft | 408 kts | 121° |
| 2026-04-27 08:36 | 24.19167 | 55.32017 | 20909 ft | 407 kts | 121° |
| 2026-04-27 08:36 | 24.17817 | 55.34746 | 20914 ft | 407 kts | 118° |
| 2026-04-27 08:37 | 24.16591 | 55.37556 | 20919 ft | 408 kts | 116° |
| 2026-04-27 08:37 | 24.15454 | 55.40400 | 20917 ft | 408 kts | 115° |
| 2026-04-27 08:37 | 24.14355 | 55.43276 | 20929 ft | 408 kts | 114° |
| 2026-04-27 08:37 | 24.13276 | 55.46151 | 20927 ft | 408 kts | 114° |
| 2026-04-27 08:38 | 24.12199 | 55.49025 | 20927 ft | 408 kts | 114° |
| 2026-04-27 08:38 | 24.11117 | 55.51898 | 20929 ft | 408 kts | 114° |
| 2026-04-27 08:38 | 24.10028 | 55.54768 | 20928 ft | 408 kts | 114° |
| 2026-04-27 08:38 | 24.08933 | 55.57632 | 20928 ft | 408 kts | 114° |
| 2026-04-27 08:39 | 24.07831 | 55.60501 | 20934 ft | 408 kts | 115° |
| 2026-04-27 08:39 | 24.06728 | 55.63363 | 20931 ft | 408 kts | 115° |
| 2026-04-27 08:39 | 24.05581 | 55.66159 | 20927 ft | 407 kts | 117° |
| 2026-04-27 08:39 | 24.04335 | 55.68946 | 20926 ft | 407 kts | 119° |
| 2026-04-27 08:40 | 24.03042 | 55.71701 | 20926 ft | 407 kts | 120° |
| 2026-04-27 08:40 | 24.01724 | 55.74446 | 20923 ft | 407 kts | 120° |
| 2026-04-27 08:40 | 24.00396 | 55.77189 | 20920 ft | 407 kts | 120° |
| 2026-04-27 08:40 | 23.99068 | 55.79930 | 20923 ft | 407 kts | 120° |
| 2026-04-27 08:41 | 23.97739 | 55.82679 | 20918 ft | 408 kts | 120° |
| 2026-04-27 08:41 | 23.96418 | 55.85421 | 20921 ft | 408 kts | 120° |
| 2026-04-27 08:41 | 23.95101 | 55.88169 | 20918 ft | 408 kts | 120° |
| 2026-04-27 08:41 | 23.93783 | 55.90923 | 20921 ft | 408 kts | 120° |
| 2026-04-27 08:42 | 23.92486 | 55.93638 | 20923 ft | 408 kts | 120° |
| 2026-04-27 08:42 | 23.91169 | 55.96392 | 20926 ft | 408 kts | 120° |
| 2026-04-27 08:42 | 23.89853 | 55.99145 | 20928 ft | 408 kts | 120° |
| 2026-04-27 08:42 | 23.88537 | 56.01896 | 20932 ft | 408 kts | 120° |
| 2026-04-27 08:43 | 23.87222 | 56.04642 | 20929 ft | 408 kts | 120° |
| 2026-04-27 08:43 | 23.85906 | 56.07387 | 20925 ft | 408 kts | 120° |
| 2026-04-27 08:43 | 23.84588 | 56.10135 | 20924 ft | 408 kts | 120° |
| 2026-04-27 08:43 | 23.83270 | 56.12881 | 20918 ft | 408 kts | 119° |
| 2026-04-27 08:44 | 23.81951 | 56.15628 | 20924 ft | 408 kts | 120° |
| 2026-04-27 08:44 | 23.80651 | 56.18334 | 20923 ft | 408 kts | 120° |
| 2026-04-27 08:44 | 23.79332 | 56.21079 | 20926 ft | 408 kts | 120° |
| 2026-04-27 08:44 | 23.78015 | 56.23818 | 20921 ft | 408 kts | 120° |
| 2026-04-27 08:45 | 23.76697 | 56.26557 | 20937 ft | 408 kts | 120° |
| 2026-04-27 08:45 | 23.75375 | 56.29302 | 20937 ft | 408 kts | 120° |
| 2026-04-27 08:45 | 23.74053 | 56.32047 | 20922 ft | 408 kts | 120° |
| 2026-04-27 08:45 | 23.72731 | 56.34789 | 20924 ft | 409 kts | 120° |
| 2026-04-27 08:46 | 23.71403 | 56.37541 | 20932 ft | 410 kts | 120° |
| 2026-04-27 08:46 | 23.70074 | 56.40295 | 20922 ft | 410 kts | 120° |
| 2026-04-27 08:46 | 23.69183 | 56.42143 | 20921 ft | 417 kts | 120° |
| 2026-04-27 08:46 | 23.67839 | 56.44929 | 20928 ft | 412 kts | 120° |
| 2026-04-27 08:47 | 23.66077 | 56.48579 | 20919 ft | 409 kts | 120° |
| 2026-04-27 08:47 | 23.64751 | 56.51322 | 20928 ft | 408 kts | 120° |
| 2026-04-27 08:47 | 23.63427 | 56.54056 | 20926 ft | 408 kts | 120° |
| 2026-04-27 08:47 | 23.62101 | 56.56794 | 20911 ft | 408 kts | 120° |
| 2026-04-27 08:48 | 23.61222 | 56.58607 | 20913 ft | 408 kts | 119° |
| 2026-04-27 08:48 | 23.59892 | 56.61350 | 20916 ft | 409 kts | 120° |
| 2026-04-27 08:48 | 23.58557 | 56.64099 | 20907 ft | 409 kts | 120° |
| 2026-04-27 08:48 | 23.57224 | 56.66841 | 20915 ft | 409 kts | 120° |
| 2026-04-27 08:49 | 23.55889 | 56.69589 | 20910 ft | 409 kts | 120° |
| 2026-04-27 08:49 | 23.54570 | 56.72301 | 20917 ft | 409 kts | 120° |
| 2026-04-27 08:49 | 23.53237 | 56.75041 | 20910 ft | 410 kts | 120° |
| 2026-04-27 08:49 | 23.51901 | 56.77787 | 20922 ft | 409 kts | 120° |
| 2026-04-27 08:50 | 23.50567 | 56.80528 | 20910 ft | 409 kts | 120° |
| 2026-04-27 08:50 | 23.49238 | 56.83260 | 20928 ft | 408 kts | 120° |
| 2026-04-27 08:50 | 23.47906 | 56.85997 | 20925 ft | 408 kts | 120° |
| 2026-04-27 08:50 | 23.46578 | 56.88722 | 20921 ft | 407 kts | 120° |
| 2026-04-27 08:51 | 23.45247 | 56.91449 | 20921 ft | 407 kts | 120° |
| 2026-04-27 08:51 | 23.43917 | 56.94174 | 20930 ft | 407 kts | 120° |
| 2026-04-27 08:51 | 23.42585 | 56.96903 | 20926 ft | 407 kts | 120° |
| 2026-04-27 08:51 | 23.41254 | 56.99628 | 20929 ft | 407 kts | 120° |
| 2026-04-27 08:52 | 23.39940 | 57.02312 | 20930 ft | 407 kts | 120° |
| 2026-04-27 08:52 | 23.38783 | 57.05126 | 20927 ft | 409 kts | 108° |
| 2026-04-27 08:52 | 23.38305 | 57.08173 | 20903 ft | 409 kts | 90° |
| 2026-04-27 08:52 | 23.38452 | 57.11268 | 20926 ft | 410 kts | 83° |
| 2026-04-27 08:53 | 23.38864 | 57.14351 | 20907 ft | 411 kts | 79° |
| 2026-04-27 08:53 | 23.39418 | 57.17411 | 20859 ft | 416 kts | 77° |
| 2026-04-27 08:53 | 23.40044 | 57.20523 | 20631 ft | 423 kts | 77° |
| 2026-04-27 08:53 | 23.40690 | 57.23657 | 20392 ft | 423 kts | 77° |
| 2026-04-27 08:54 | 23.41325 | 57.26784 | 20147 ft | 421 kts | 77° |
| 2026-04-27 08:54 | 23.41940 | 57.29899 | 19907 ft | 419 kts | 78° |
| 2026-04-27 08:54 | 23.42528 | 57.32960 | 19685 ft | 417 kts | 78° |
| 2026-04-27 08:54 | 23.43108 | 57.36050 | 19466 ft | 415 kts | 78° |
| 2026-04-27 08:55 | 23.43675 | 57.39125 | 19215 ft | 413 kts | 78° |
| 2026-04-27 08:55 | 23.44236 | 57.42201 | 18990 ft | 412 kts | 79° |
| 2026-04-27 08:55 | 23.44790 | 57.45250 | 18765 ft | 407 kts | 79° |
| 2026-04-27 08:55 | 23.45334 | 57.48255 | 18427 ft | 402 kts | 79° |
| 2026-04-27 08:56 | 23.45873 | 57.51239 | 17911 ft | 400 kts | 79° |
| 2026-04-27 08:56 | 23.46402 | 57.54174 | 17427 ft | 397 kts | 79° |
| 2026-04-27 08:56 | 23.46933 | 57.57116 | 16935 ft | 394 kts | 79° |
| 2026-04-27 08:56 | 23.47458 | 57.60035 | 16436 ft | 390 kts | 79° |
| 2026-04-27 08:57 | 23.48492 | 57.65795 | 15493 ft | 383 kts | 79° |
| 2026-04-27 08:57 | 23.49002 | 57.68639 | 15009 ft | 381 kts | 78° |
| 2026-04-27 08:57 | 23.49501 | 57.71428 | 14536 ft | 378 kts | 78° |
| 2026-04-27 08:58 | 23.50001 | 57.74227 | 14076 ft | 374 kts | 78° |
| 2026-04-27 08:58 | 23.50497 | 57.77009 | 13613 ft | 371 kts | 78° |
| 2026-04-27 08:58 | 23.50987 | 57.79759 | 13093 ft | 368 kts | 78° |
| 2026-04-27 08:58 | 23.51473 | 57.82489 | 12612 ft | 366 kts | 78° |
| 2026-04-27 08:59 | 23.51956 | 57.85199 | 12138 ft | 363 kts | 78° |
| 2026-04-27 08:59 | 23.52435 | 57.87892 | 11687 ft | 361 kts | 78° |
| 2026-04-27 08:59 | 23.52910 | 57.90558 | 11392 ft | 353 kts | 78° |
| 2026-04-27 08:59 | 23.53365 | 57.93126 | 11293 ft | 338 kts | 78° |
| 2026-04-27 09:00 | 23.53801 | 57.95593 | 11157 ft | 326 kts | 78° |
| 2026-04-27 09:00 | 23.54222 | 57.97987 | 11030 ft | 317 kts | 78° |
| 2026-04-27 09:00 | 23.54636 | 58.00344 | 11000 ft | 317 kts | 78° |
| 2026-04-27 09:00 | 23.55047 | 58.02677 | 11001 ft | 318 kts | 78° |
| 2026-04-27 09:01 | 23.55465 | 58.05043 | 10989 ft | 318 kts | 78° |
| 2026-04-27 09:01 | 23.55884 | 58.07413 | 10984 ft | 318 kts | 78° |
| 2026-04-27 09:01 | 23.56300 | 58.09766 | 10986 ft | 314 kts | 78° |
| 2026-04-27 09:01 | 23.56699 | 58.12019 | 10984 ft | 313 kts | 78° |
| 2026-04-27 09:02 | 23.57111 | 58.14350 | 10991 ft | 312 kts | 78° |
| 2026-04-27 09:02 | 23.57520 | 58.16672 | 10990 ft | 312 kts | 78° |
| 2026-04-27 09:02 | 23.57927 | 58.18994 | 10949 ft | 309 kts | 78° |
| 2026-04-27 09:02 | 23.58330 | 58.21289 | 10638 ft | 307 kts | 78° |
| 2026-04-27 09:03 | 23.58730 | 58.23577 | 10267 ft | 307 kts | 77° |
| 2026-04-27 09:03 | 23.59120 | 58.25872 | 10041 ft | 308 kts | 79° |
| 2026-04-27 09:03 | 23.59454 | 58.28153 | 9999 ft | 309 kts | 80° |
| 2026-04-27 09:03 | 23.59779 | 58.30502 | 9995 ft | 309 kts | 80° |
| 2026-04-27 09:04 | 23.60092 | 58.32789 | 9995 ft | 309 kts | 80° |
| 2026-04-27 09:04 | 23.60411 | 58.35115 | 9990 ft | 309 kts | 81° |
| 2026-04-27 09:04 | 23.60727 | 58.37407 | 9904 ft | 301 kts | 81° |
| 2026-04-27 09:04 | 23.61036 | 58.39653 | 9645 ft | 297 kts | 81° |
| 2026-04-27 09:05 | 23.61339 | 58.41869 | 9356 ft | 293 kts | 81° |
| 2026-04-27 09:05 | 23.61636 | 58.44050 | 9172 ft | 286 kts | 81° |
| 2026-04-27 09:05 | 23.61918 | 58.46131 | 9075 ft | 274 kts | 81° |
| 2026-04-27 09:05 | 23.62202 | 58.48138 | 8973 ft | 261 kts | 77° |
| 2026-04-27 09:06 | 23.62887 | 58.49894 | 8832 ft | 246 kts | 47° |
| 2026-04-27 09:06 | 23.64228 | 58.50898 | 8719 ft | 227 kts | 12° |
| 2026-04-27 09:06 | 23.65720 | 58.50960 | 8595 ft | 208 kts | 341° |
| 2026-04-27 09:06 | 23.66949 | 58.50267 | 8445 ft | 194 kts | 315° |
| 2026-04-27 09:07 | 23.67725 | 58.49082 | 8099 ft | 194 kts | 290° |
| 2026-04-27 09:07 | 23.67918 | 58.47622 | 7745 ft | 199 kts | 265° |
| 2026-04-27 09:07 | 23.67451 | 58.46165 | 7300 ft | 211 kts | 239° |
| 2026-04-27 09:07 | 23.66358 | 58.45059 | 6847 ft | 224 kts | 217° |
| 2026-04-27 09:08 | 23.64938 | 58.44264 | 6330 ft | 237 kts | 201° |
| 2026-04-27 09:08 | 23.63278 | 58.43984 | 5940 ft | 239 kts | 195° |
| 2026-04-27 09:08 | 23.61929 | 58.43126 | 5710 ft | 219 kts | 235° |
| 2026-04-27 09:08 | 23.61464 | 58.41645 | 5446 ft | 206 kts | 272° |
| 2026-04-27 09:09 | 23.61559 | 58.40070 | 5012 ft | 212 kts | 276° |
| 2026-04-27 09:09 | 23.61582 | 58.38438 | 4530 ft | 218 kts | 274° |
| 2026-04-27 09:09 | 23.62092 | 58.36891 | 3937 ft | 224 kts | 307° |
| 2026-04-27 09:09 | 23.63356 | 58.35906 | 3609 ft | 225 kts | 337° |
| 2026-04-27 09:10 | 23.64871 | 58.35758 | 3576 ft | 216 kts | 4° |
| 2026-04-27 09:10 | 23.66289 | 58.36367 | 3166 ft | 231 kts | 29° |
| 2026-04-27 09:10 | 23.67431 | 58.37706 | 2612 ft | 249 kts | 48° |
| 2026-04-27 09:10 | 23.68216 | 58.39410 | 2265 ft | 255 kts | 74° |
| 2026-04-27 09:11 | 23.68133 | 58.41256 | 2176 ft | 245 kts | 111° |
| 2026-04-27 09:11 | 23.67126 | 58.42593 | 2181 ft | 218 kts | 154° |
| 2026-04-27 09:11 | 23.65783 | 58.42986 | 2175 ft | 186 kts | 189° |
| 2026-04-27 09:11 | 23.64604 | 58.42717 | 2177 ft | 166 kts | 208° |
| 2026-04-27 09:12 | 23.63539 | 58.42278 | 2176 ft | 160 kts | 211° |
| 2026-04-27 09:12 | 23.62579 | 58.41764 | 2173 ft | 145 kts | 224° |
| 2026-04-27 09:12 | 23.62066 | 58.40929 | 2018 ft | 128 kts | 255° |
| 2026-04-27 09:12 | 23.61803 | 58.39998 | 1842 ft | 129 kts | 265° |
| 2026-04-27 09:13 | 23.61682 | 58.39019 | 1668 ft | 131 kts | 268° |
| 2026-04-27 09:13 | 23.61587 | 58.38026 | 1507 ft | 132 kts | 267° |
| 2026-04-27 09:13 | 23.61492 | 58.37024 | 1345 ft | 133 kts | 268° |
| 2026-04-27 09:13 | 23.61413 | 58.36019 | 1164 ft | 133 kts | 268° |
| 2026-04-27 09:14 | 23.61333 | 58.35028 | 1003 ft | 132 kts | 267° |
| 2026-04-27 09:14 | 23.61251 | 58.34031 | 830 ft | 132 kts | 267° |
| 2026-04-27 09:14 | 23.61171 | 58.33031 | 682 ft | 133 kts | 265° |
| 2026-04-27 09:14 | 23.61091 | 58.32031 | 519 ft | 131 kts | 265° |
| 2026-04-27 09:15 | 23.61011 | 58.31042 | 339 ft | 131 kts | 265° |
| 2026-04-27 09:15 | 23.60928 | 58.30054 | 141 ft | 131 kts | 265° |
| 2026-04-27 09:15 | 23.60846 | 58.29082 | 43 ft | 121 kts | 268° |
| 2026-04-27 09:15 | 23.60776 | 58.28323 | 42 ft | 85 kts | 266° |
| 2026-04-27 09:16 | 23.60759 | 58.27760 | 41 ft | 65 kts | 264° |
| 2026-04-27 09:16 | 23.60726 | 58.27441 | 43 ft | 37 kts | 263° |
| 2026-04-27 09:16 | 23.60705 | 58.27238 | 45 ft | 25 kts | 263° |
| 2026-04-27 09:16 | 23.60654 | 58.27059 | 46 ft | 25 kts | 245° |
| 2026-04-27 09:17 | 23.60560 | 58.26897 | 45 ft | 26 kts | 236° |
| 2026-04-27 09:17 | 23.60484 | 58.26794 | 45 ft | 14 kts | 213° |
| 2026-04-27 09:17 | 23.60291 | 58.27671 | 41 ft | 0 kts | 220° |